Latest Coastal Weather Observations for Groote Eylandt Airport

IDD60701

Issued at 12:21 pm CST Tuesday 12 December 2017 (issued every 10 minutes, with the page automatically refreshed every 10 minutes)

About coastal observations | Map of coastal stations | Coastal observations for NT | Marine services | Other Formats
Station Details ID: 014518 Name: GROOTE EYLANDT AIRPORT Lat: -13.97 Lon: 136.46 Height: 13.7 m
Data from the previous 72 hours. | See also: Recent months at Groote Eylandt Airport
Date/Time
CST
Temp
°C
Wind Pressure Rain since
9am
mm
Weather Cloud Vis
km
Sea
Height
m
Swell
Dir  Spd
kts
Gust
kts
hPa Trend Height
m
Period
s
Dir
12/12:00pm 32.9 W 5 9 1009.3 - 0.0 - Partly cloudy 10 - - - -
12/11:30am 32.5 WNW 3 7 1009.8 - 0.0 - Partly cloudy 10 - - - -
12/11:00am 32.3 NW 4 7 1010.1 - 0.0 - Partly cloudy 10 - - - -
12/10:30am 31.5 W 4 8 1010.4 - 0.0 - Partly cloudy 10 - - - -
12/10:00am 31.0 NW 6 8 1010.6 - 0.0 - Partly cloudy 10 - - - -
12/09:30am 30.5 WNW 7 11 1010.6 - 0.0 - Partly cloudy 10 - - - -
12/09:00am 30.6 WNW 8 13 1010.6 - 17.6 - Mostly clear 10 - - - -
12/08:30am 30.1 WNW 7 9 1010.4 - 17.6 - Partly cloudy 10 - - - -
12/08:00am 30.0 WNW 7 9 1010.2 - 17.6 - - 10 - - - -
12/07:30am 29.7 NW 7 9 1009.8 - 17.6 - - 10 - - - -
12/07:00am 26.9 N 1 4 1009.7 - 17.6 - - 10 - - - -
12/06:30am 25.3 CALM 0 0 1009.4 - 17.6 - Partly cloudy 10 - - - -
12/06:00am 24.6 CALM 0 0 1009.0 - 17.6 - Partly cloudy 10 - - - -
12/05:30am 24.4 CALM 0 0 1008.6 - 17.6 - Partly cloudy 10 - - - -
12/05:00am 24.9 CALM 0 0 1007.9 - 17.6 - - 10 - - - -
12/04:30am 24.5 CALM 0 0 1008.4 - 17.6 - Partly cloudy 10 - - - -
12/04:00am 24.7 CALM 0 0 1007.9 - 17.6 - - 10 - - - -
12/03:30am 24.7 CALM 0 0 1007.7 - 17.6 - - 10 - - - -
12/03:00am 24.6 CALM 0 0 1007.6 - 17.6 - - 10 - - - -
12/02:30am 24.9 CALM 0 0 1007.6 - 17.6 - - 10 - - - -
12/02:00am 24.8 CALM 0 0 1007.7 - 17.6 - - 10 - - - -
12/01:30am 25.1 CALM 0 0 1007.8 - 17.6 - - 10 - - - -
12/01:00am 25.0 E 3 4 1008.0 - 17.6 - - 10 - - - -
12/12:30am 25.3 E 4 5 1008.5 - 17.6 - - 10 - - - -
12/12:00am 25.9 E 1 3 1009.0 - 17.6 - - 10 - - - -
 
Date/Time
CST
Temp
°C
Wind Pressure Rain since
9am
mm
Weather Cloud Vis
km
Sea
Height
m
Swell
Dir  Spd
kts
Gust
kts
hPa Trend Height
m
Period
s
Dir
11/11:30pm 25.9 E 4 5 1009.4 - 17.6 - - 10 - - - -
11/11:00pm 26.0 CALM 0 0 1009.6 - 17.6 - - 10 - - - -
11/10:30pm 26.3 CALM 0 0 1009.4 - 17.6 - - 10 - - - -
11/10:00pm 27.3 ENE 3 5 1009.2 - 17.6 - - 10 - - - -
11/09:30pm 27.7 NE 5 6 1008.8 - 17.6 - - 10 - - - -
11/09:00pm 26.9 ENE 4 5 1008.7 - 17.6 - - 10 - - - -
11/08:30pm 27.3 ENE 2 4 1008.4 - 17.6 - - 10 - - - -
11/08:00pm 27.7 E 3 4 1008.3 - 17.6 - - 10 - - - -
11/07:30pm 28.0 E 2 3 1008.3 - 17.6 - - 10 - - - -
11/07:00pm 29.9 ENE 3 5 1008.1 - 17.6 - - 10 - - - -
11/06:30pm 30.9 ENE 5 6 1007.7 - 17.6 - - 10 - - - -
11/06:00pm 31.7 N 4 6 1007.3 - 17.6 - - 10 - - - -
11/05:30pm 32.2 NNE 6 8 1007.1 - 17.6 - - 10 - - - -
11/05:00pm 32.0 N 5 7 1006.9 - 17.6 - - 10 - - - -
11/04:30pm 31.8 N 5 7 1007.3 - 17.6 - - 10 - - - -
11/04:00pm 30.7 E 4 5 1007.4 - 17.4 - - 10 - - - -
11/03:30pm 28.4 SE 4 5 1007.6 - 17.4 - - - - - - -
11/03:00pm 26.5 ESE 4 6 1007.7 - 17.4 Showers Cloudy 10 - - - -
11/02:30pm 25.8 ENE 10 14 1007.9 - 16.0 - Partly cloudy 9 - - - -
11/02:29pm 26.0 E 10 14 1007.9 - 16.0 - Partly cloudy 10 - - - -
11/02:00pm 28.0 ESE 14 29 1008.5 - 9.8 - Partly cloudy 2 - - - -
11/01:49pm 25.0 ESE 14 23 1009.5 - 3.0 - Partly cloudy 4 - - - -
11/01:44pm 27.4 E 9 23 1008.9 - 0.4 - Partly cloudy 10 - - - -
11/01:30pm 32.9 NW 9 12 1008.1 - 0.0 - Partly cloudy 10 - - - -
11/01:00pm 33.1 WNW 9 14 1008.4 - 0.0 - Partly cloudy 10 - - - -
11/12:30pm 33.9 WNW 7 11 1009.1 - 0.0 - Partly cloudy 10 - - - -
11/12:00pm 32.9 SW 5 7 1009.6 - 0.0 - Mostly cloudy 10 - - - -
11/11:30am 32.9 WNW 7 11 1010.0 - 0.0 - Partly cloudy 10 - - - -
11/11:00am 32.5 W 4 7 1010.5 - 0.0 - Cloudy 10 - - - -
11/10:30am 31.7 W 6 11 1010.9 - 0.0 - Partly cloudy 10 - - - -
11/10:00am 31.5 W 7 10 1011.3 - 0.0 - Partly cloudy 10 - - - -
11/09:30am 30.8 W 7 11 1011.3 - 0.0 - Partly cloudy 10 - - - -
11/09:00am 30.8 WNW 7 9 1011.3 - 0.0 - Mostly cloudy 10 - - - -
11/08:30am 30.3 WNW 6 8 1011.4 - 0.0 - Partly cloudy 10 - - - -
11/08:00am 29.7 N 3 4 1011.4 - 0.0 - - 10 - - - -
11/07:30am 28.7 E 2 4 1011.3 - 0.0 - Partly cloudy 10 - - - -
11/07:00am 26.1 E 4 5 1010.8 - 0.0 - Partly cloudy 10 - - - -
11/06:30am 24.0 E 1 4 1010.3 - 0.0 - - 10 - - - -
11/06:00am 23.4 E 4 5 1009.5 - 0.0 - - 10 - - - -
11/05:30am 23.6 CALM 0 0 1009.1 - 0.0 - - 10 - - - -
11/05:00am 23.8 CALM 0 0 1008.6 - 0.0 - - 10 - - - -
11/04:30am 24.3 CALM 0 0 1008.3 - 0.0 - - 10 - - - -
11/04:00am 24.0 CALM 0 0 1008.4 - 0.0 - - 10 - - - -
11/03:30am 24.0 CALM 0 0 1008.3 - 0.0 - - 10 - - - -
11/03:00am 24.2 CALM 0 0 1008.2 - 0.0 - - 10 - - - -
11/02:30am 24.5 CALM 0 0 1008.3 - 0.0 - - 10 - - - -
11/02:00am 24.5 CALM 0 0 1008.5 - 0.0 - - 10 - - - -
11/01:30am 24.9 CALM 0 0 1008.7 - 0.0 - - 10 - - - -
11/01:00am 24.9 CALM 0 0 1009.2 - 0.0 - - 10 - - - -
11/12:30am 25.2 CALM 0 0 1009.5 - 0.0 - - 10 - - - -
11/12:00am 25.6 E 2 3 1009.8 - 0.0 - - 10 - - - -
 
Date/Time
CST
Temp
°C
Wind Pressure Rain since
9am
mm
Weather Cloud Vis
km
Sea
Height
m
Swell
Dir  Spd
kts
Gust
kts
hPa Trend Height
m
Period
s
Dir
10/11:30pm 25.7 E 3 4 1010.0 - 0.0 - - 10 - - - -
10/11:00pm 25.9 E 3 4 1010.2 - 0.0 - - 10 - - - -
10/10:30pm 26.4 E 3 3 1010.2 - 0.0 - - 10 - - - -
10/10:00pm 27.0 CALM 0 0 1010.1 - 0.0 - - 10 - - - -
10/09:30pm 27.2 E 1 3 1009.9 - 0.0 - - 10 - - - -
10/09:00pm 28.0 E 3 4 1009.5 - 0.0 - - 10 - - - -
10/08:30pm 29.3 ENE 3 4 1009.2 - 0.0 - - 10 - - - -
10/08:00pm 30.2 NE 5 6 1009.0 - 0.0 - - 10 - - - -
10/07:30pm 30.9 NE 4 5 1008.4 - 0.0 - - 10 - - - -
10/07:00pm 31.7 ENE 5 7 1008.1 - 0.0 - Partly cloudy 10 - - - -
10/06:30pm 32.0 W 4 5 1008.0 - 0.0 - Partly cloudy 10 - - - -
10/06:00pm 32.3 WNW 6 7 1007.8 - 0.0 - Partly cloudy 10 - - - -
10/05:30pm 32.8 NW 8 11 1007.7 - 0.0 - Partly cloudy 10 - - - -
10/05:00pm 33.8 SSW 3 9 1007.6 - 0.0 - Partly cloudy 10 - - - -
10/04:30pm 34.4 WSW 5 8 1007.7 - 0.0 - - 10 - - - -
10/04:00pm 34.3 W 7 8 1007.7 - 0.0 - - 10 - - - -
10/03:30pm 34.3 WSW 5 9 1007.6 - 0.0 - - 10 - - - -
10/03:00pm 33.8 W 7 11 1008.0 - 0.0 - - 10 - - - -
10/02:30pm 33.9 WNW 9 12 1008.2 - 0.0 - - 10 - - - -
10/02:00pm 34.5 SW 5 8 1008.6 - 0.0 - Partly cloudy 10 - - - -
10/01:30pm 34.2 SW 7 11 1008.9 - 0.0 - Partly cloudy 10 - - - -
10/01:00pm 33.8 WSW 9 12 1009.3 - 0.0 - Partly cloudy 10 - - - -
10/12:30pm 33.5 SW 8 11 1009.9 - 0.0 - Partly cloudy 10 - - - -
10/12:00pm 32.9 SW 8 14 1010.1 - 0.0 - Mostly clear 10 - - - -
10/11:30am 32.6 WSW 7 12 1010.2 - 0.0 - Partly cloudy 10 - - - -
10/11:00am 32.6 SSW 5 10 1010.6 - 0.0 - Partly cloudy 10 - - - -
10/10:30am 32.7 SW 6 11 1010.9 - 0.0 - Partly cloudy 10 - - - -
10/10:00am 32.1 WSW 5 8 1011.3 - 0.0 - Partly cloudy 10 - - - -
10/09:30am 31.2 WSW 5 7 1011.4 - 0.0 - Partly cloudy 10 - - - -
10/09:00am 31.1 SW 5 9 1011.4 - 0.0 - Mostly clear 10 - - - -
10/08:30am 31.0 SSW 3 6 1011.1 - 0.0 - Partly cloudy 10 - - - -
10/08:00am 30.2 E 3 4 1010.3 - 0.0 - - 10 - - - -
10/07:30am 28.5 ESE 1 4 1009.7 - 0.0 - - 10 - - - -
10/07:00am 26.2 CALM 0 3 1009.6 - 0.0 - - 10 - - - -
10/06:30am 24.2 CALM 0 3 1009.3 - 0.0 - - 10 - - - -
10/06:00am 23.2 ESE 3 4 1008.9 - 0.0 - - 10 - - - -
10/05:30am 23.3 ESE 2 3 1008.5 - 0.0 - - 10 - - - -
10/05:00am 23.2 ESE 3 4 1008.1 - 0.0 - - 10 - - - -
10/04:30am 23.7 CALM 0 0 1007.9 - 0.0 - - 10 - - - -
10/04:00am 24.0 ESE 3 4 1007.8 - 0.0 - - 10 - - - -
10/03:30am 24.1 ESE 1 4 1007.8 - 0.0 - - 10 - - - -
10/03:00am 24.4 CALM 0 0 1008.1 - 0.0 - - 10 - - - -
10/02:30am 24.2 CALM 0 0 1008.2 - 0.0 - - 10 - - - -
10/02:00am 24.5 CALM 0 0 1008.3 - 0.0 - - 10 - - - -
10/01:30am 25.1 CALM 0 0 1008.5 - 0.0 - - 10 - - - -
10/01:00am 25.3 CALM 0 0 1008.8 - 0.0 - - 10 - - - -
10/12:30am 25.4 ESE 3 4 1009.0 - 0.0 - - 10 - - - -
10/12:00am 26.0 ESE 3 4 1009.5 - 0.0 - - 10 - - - -
 
Date/Time
CST
Temp
°C
Wind Pressure Rain since
9am
mm
Weather Cloud Vis
km
Sea
Height
m
Swell
Dir  Spd
kts
Gust
kts
hPa Trend Height
m
Period
s
Dir
09/11:30pm 26.7 ENE 3 4 1009.8 - 0.0 - - 10 - - - -
09/11:00pm 27.8 ENE 5 6 1010.0 - 0.0 - - 10 - - - -
09/10:30pm 27.7 E 5 6 1010.1 - 0.0 - - 10 - - - -
09/10:00pm 27.3 ESE 5 6 1010.1 - 0.0 - - 10 - - - -
09/09:30pm 27.8 ENE 3 4 1010.1 - 0.0 - - 10 - - - -
09/09:00pm 27.9 ESE 3 4 1010.0 - 0.0 - - 10 - - - -
09/08:30pm 28.8 E 4 5 1009.9 - 0.0 - - 10 - - - -
09/08:00pm 29.5 E 5 7 1009.8 - 0.0 - - 10 - - - -
09/07:30pm 30.0 ENE 6 8 1009.5 - 0.0 - - 10 - - - -
09/07:00pm 30.5 E 6 7 1009.2 - 0.0 - - 10 - - - -
09/06:30pm 30.7 S 3 4 1008.9 - 0.0 - - 10 - - - -
09/06:00pm 31.2 SSW 5 8 1008.7 - 0.0 - Partly cloudy 10 - - - -
09/05:30pm 32.7 SSW 5 9 1008.4 - 0.0 - Partly cloudy 10 - - - -
09/05:00pm 33.1 SW 6 11 1008.0 - 0.0 - Partly cloudy 10 - - - -
09/04:30pm 33.8 S 7 11 1007.8 - 0.0 - Partly cloudy 10 - - - -
09/04:00pm 34.3 ESE 7 11 1007.7 - 0.0 - Partly cloudy 10 - - - -
09/03:30pm 34.9 NE 9 12 1007.5 - 0.0 - - 10 - - - -
09/03:00pm 35.3 E 8 14 1007.6 - 0.0 - - 10 - - - -
09/02:30pm 34.9 NE 8 12 1007.8 - 0.0 - - 10 - - - -
09/02:00pm 35.3 NE 8 13 1008.0 - 0.0 - - 10 - - - -
09/01:30pm 34.5 NNE 9 14 1008.5 - 0.0 - - 10 - - - -
09/01:00pm 34.3 NE 9 13 1008.9 - 0.0 - - 10 - - - -
09/12:30pm 34.7 ENE 12 16 1009.2 - 0.0 - - 10 - - - -

Other Formats:

Comma delimited format used in spreadsheet applications
http://www.bom.gov.au/fwo/IDD60701/IDD60701.94153.axf

JavaScript Object Notation format (JSON) in row-major order
http://www.bom.gov.au/fwo/IDD60701/IDD60701.94153.json